sensor_id;sensor_type;location;lat;lon;timestamp;temperature;humidity
21672;DHT22;10997;52.242;8.168;2023-05-21T00:03:42;13.40;99.90
21672;DHT22;10997;52.242;8.168;2023-05-21T00:08:45;13.30;99.90
21672;DHT22;10997;52.242;8.168;2023-05-21T00:13:45;13.30;99.90
21672;DHT22;10997;52.242;8.168;2023-05-21T00:18:46;13.20;99.90
21672;DHT22;10997;52.242;8.168;2023-05-21T00:23:48;13.20;99.90
21672;DHT22;10997;52.242;8.168;2023-05-21T00:28:49;13.20;99.90
21672;DHT22;10997;52.242;8.168;2023-05-21T00:33:50;13.20;99.90
21672;DHT22;10997;52.242;8.168;2023-05-21T00:38:51;13.10;99.90
21672;DHT22;10997;52.242;8.168;2023-05-21T00:43:51;13.00;99.90
21672;DHT22;10997;52.242;8.168;2023-05-21T00:48:52;13.00;99.90
21672;DHT22;10997;52.242;8.168;2023-05-21T00:53:53;13.00;99.90
21672;DHT22;10997;52.242;8.168;2023-05-21T00:58:54;13.00;99.90
21672;DHT22;10997;52.242;8.168;2023-05-21T01:03:56;12.90;99.90
21672;DHT22;10997;52.242;8.168;2023-05-21T01:08:57;13.00;99.90
21672;DHT22;10997;52.242;8.168;2023-05-21T01:13:57;13.00;99.90
21672;DHT22;10997;52.242;8.168;2023-05-21T01:18:58;13.00;99.90
21672;DHT22;10997;52.242;8.168;2023-05-21T01:23:59;13.00;99.90
21672;DHT22;10997;52.242;8.168;2023-05-21T01:29:01;13.00;99.90
21672;DHT22;10997;52.242;8.168;2023-05-21T01:34:04;13.00;99.90
21672;DHT22;10997;52.242;8.168;2023-05-21T01:39:16;13.00;99.90
21672;DHT22;10997;52.242;8.168;2023-05-21T01:44:19;12.90;99.90
21672;DHT22;10997;52.242;8.168;2023-05-21T01:49:22;12.90;99.90
21672;DHT22;10997;52.242;8.168;2023-05-21T01:54:23;12.90;99.90
21672;DHT22;10997;52.242;8.168;2023-05-21T01:59:24;12.90;99.90
21672;DHT22;10997;52.242;8.168;2023-05-21T02:04:24;12.80;99.90
21672;DHT22;10997;52.242;8.168;2023-05-21T02:09:25;12.80;99.90
21672;DHT22;10997;52.242;8.168;2023-05-21T02:14:25;12.70;99.90
21672;DHT22;10997;52.242;8.168;2023-05-21T02:19:26;12.70;99.90
21672;DHT22;10997;52.242;8.168;2023-05-21T02:24:27;12.60;99.90
21672;DHT22;10997;52.242;8.168;2023-05-21T02:29:28;12.60;99.90
21672;DHT22;10997;52.242;8.168;2023-05-21T02:34:29;12.50;99.90
21672;DHT22;10997;52.242;8.168;2023-05-21T02:39:34;12.50;99.90
21672;DHT22;10997;52.242;8.168;2023-05-21T02:44:34;12.50;99.90
21672;DHT22;10997;52.242;8.168;2023-05-21T02:49:35;12.50;99.90
21672;DHT22;10997;52.242;8.168;2023-05-21T02:54:35;12.40;99.90
21672;DHT22;10997;52.242;8.168;2023-05-21T02:59:36;12.40;99.90
21672;DHT22;10997;52.242;8.168;2023-05-21T03:04:37;12.30;99.90
21672;DHT22;10997;52.242;8.168;2023-05-21T03:09:39;12.20;99.90
21672;DHT22;10997;52.242;8.168;2023-05-21T03:14:40;12.20;99.90
21672;DHT22;10997;52.242;8.168;2023-05-21T03:19:45;12.20;99.90
21672;DHT22;10997;52.242;8.168;2023-05-21T03:24:46;12.10;99.90
21672;DHT22;10997;52.242;8.168;2023-05-21T03:29:46;12.20;99.90
21672;DHT22;10997;52.242;8.168;2023-05-21T03:34:47;12.20;99.90
21672;DHT22;10997;52.242;8.168;2023-05-21T03:39:47;12.20;99.90
21672;DHT22;10997;52.242;8.168;2023-05-21T03:44:48;12.20;99.90
21672;DHT22;10997;52.242;8.168;2023-05-21T03:49:48;12.30;99.90
21672;DHT22;10997;52.242;8.168;2023-05-21T03:54:49;12.30;99.90
21672;DHT22;10997;52.242;8.168;2023-05-21T03:59:50;12.30;99.90
21672;DHT22;10997;52.242;8.168;2023-05-21T04:04:50;12.30;99.90
21672;DHT22;10997;52.242;8.168;2023-05-21T04:09:52;12.40;99.90
21672;DHT22;10997;52.242;8.168;2023-05-21T04:14:53;12.30;99.90
21672;DHT22;10997;52.242;8.168;2023-05-21T04:19:53;12.40;99.90
21672;DHT22;10997;52.242;8.168;2023-05-21T04:24:54;12.40;99.90
21672;DHT22;10997;52.242;8.168;2023-05-21T04:29:55;12.40;99.90
21672;DHT22;10997;52.242;8.168;2023-05-21T04:34:57;12.50;99.90
21672;DHT22;10997;52.242;8.168;2023-05-21T04:40:00;12.40;99.90
21672;DHT22;10997;52.242;8.168;2023-05-21T04:45:02;12.50;99.90
21672;DHT22;10997;52.242;8.168;2023-05-21T04:50:02;12.50;99.90
21672;DHT22;10997;52.242;8.168;2023-05-21T04:55:04;12.70;99.90
21672;DHT22;10997;52.242;8.168;2023-05-21T05:00:05;12.80;99.90
21672;DHT22;10997;52.242;8.168;2023-05-21T05:05:06;13.10;99.90
21672;DHT22;10997;52.242;8.168;2023-05-21T05:10:07;13.40;99.90
21672;DHT22;10997;52.242;8.168;2023-05-21T05:15:08;13.80;99.90
21672;DHT22;10997;52.242;8.168;2023-05-21T05:20:09;13.90;99.90
21672;DHT22;10997;52.242;8.168;2023-05-21T05:25:10;14.10;99.90
21672;DHT22;10997;52.242;8.168;2023-05-21T05:30:11;14.20;99.90
21672;DHT22;10997;52.242;8.168;2023-05-21T05:35:11;14.40;99.90
21672;DHT22;10997;52.242;8.168;2023-05-21T05:40:12;14.40;99.90
21672;DHT22;10997;52.242;8.168;2023-05-21T05:45:13;14.40;99.90
21672;DHT22;10997;52.242;8.168;2023-05-21T05:50:13;14.50;99.90
21672;DHT22;10997;52.242;8.168;2023-05-21T05:55:14;14.60;99.90
21672;DHT22;10997;52.242;8.168;2023-05-21T06:00:15;14.60;99.90
21672;DHT22;10997;52.242;8.168;2023-05-21T06:05:16;14.70;99.90
21672;DHT22;10997;52.242;8.168;2023-05-21T06:10:16;14.70;99.90
21672;DHT22;10997;52.242;8.168;2023-05-21T06:15:18;14.70;99.90
21672;DHT22;10997;52.242;8.168;2023-05-21T06:20:18;14.70;99.90
21672;DHT22;10997;52.242;8.168;2023-05-21T06:25:19;14.70;99.90
21672;DHT22;10997;52.242;8.168;2023-05-21T06:30:20;14.70;99.90
21672;DHT22;10997;52.242;8.168;2023-05-21T06:35:20;14.80;99.90
21672;DHT22;10997;52.242;8.168;2023-05-21T06:40:21;14.70;99.90
21672;DHT22;10997;52.242;8.168;2023-05-21T06:45:22;14.80;99.90
21672;DHT22;10997;52.242;8.168;2023-05-21T06:50:22;14.80;99.90
21672;DHT22;10997;52.242;8.168;2023-05-21T06:55:23;14.90;99.90
21672;DHT22;10997;52.242;8.168;2023-05-21T07:00:24;14.90;99.90
21672;DHT22;10997;52.242;8.168;2023-05-21T07:05:25;15.00;99.90
21672;DHT22;10997;52.242;8.168;2023-05-21T07:10:25;15.10;99.90
21672;DHT22;10997;52.242;8.168;2023-05-21T07:15:26;15.30;99.90
21672;DHT22;10997;52.242;8.168;2023-05-21T07:20:32;15.40;99.90
21672;DHT22;10997;52.242;8.168;2023-05-21T07:25:33;15.50;99.90
21672;DHT22;10997;52.242;8.168;2023-05-21T07:30:34;15.70;99.90
21672;DHT22;10997;52.242;8.168;2023-05-21T07:35:34;15.60;99.90
21672;DHT22;10997;52.242;8.168;2023-05-21T07:40:35;15.80;99.90
21672;DHT22;10997;52.242;8.168;2023-05-21T07:45:35;16.10;99.90
21672;DHT22;10997;52.242;8.168;2023-05-21T07:50:36;16.10;99.90
21672;DHT22;10997;52.242;8.168;2023-05-21T07:55:37;16.30;99.90
21672;DHT22;10997;52.242;8.168;2023-05-21T08:00:45;16.50;99.90
21672;DHT22;10997;52.242;8.168;2023-05-21T08:05:46;16.60;99.90
21672;DHT22;10997;52.242;8.168;2023-05-21T08:10:50;16.80;99.90
21672;DHT22;10997;52.242;8.168;2023-05-21T08:15:51;17.20;99.90
21672;DHT22;10997;52.242;8.168;2023-05-21T08:20:52;17.30;99.90
21672;DHT22;10997;52.242;8.168;2023-05-21T08:25:52;17.30;99.90
21672;DHT22;10997;52.242;8.168;2023-05-21T08:30:53;17.50;99.90
21672;DHT22;10997;52.242;8.168;2023-05-21T08:35:54;17.80;99.90
21672;DHT22;10997;52.242;8.168;2023-05-21T08:40:54;18.00;99.90
21672;DHT22;10997;52.242;8.168;2023-05-21T08:45:56;18.10;99.90
21672;DHT22;10997;52.242;8.168;2023-05-21T08:50:59;18.30;99.90
21672;DHT22;10997;52.242;8.168;2023-05-21T08:56:00;18.50;99.90
21672;DHT22;10997;52.242;8.168;2023-05-21T09:01:02;18.80;99.90
21672;DHT22;10997;52.242;8.168;2023-05-21T09:06:04;18.90;99.90
21672;DHT22;10997;52.242;8.168;2023-05-21T09:11:05;19.00;99.90
21672;DHT22;10997;52.242;8.168;2023-05-21T09:16:06;18.80;99.90
21672;DHT22;10997;52.242;8.168;2023-05-21T09:21:23;19.10;99.90
21672;DHT22;10997;52.242;8.168;2023-05-21T09:26:24;19.40;99.90
21672;DHT22;10997;52.242;8.168;2023-05-21T09:31:26;19.60;99.90
21672;DHT22;10997;52.242;8.168;2023-05-21T09:36:26;19.90;99.90
21672;DHT22;10997;52.242;8.168;2023-05-21T09:41:32;19.90;99.90
21672;DHT22;10997;52.242;8.168;2023-05-21T09:46:37;19.90;99.90
21672;DHT22;10997;52.242;8.168;2023-05-21T09:51:42;19.90;99.90
21672;DHT22;10997;52.242;8.168;2023-05-21T09:56:43;20.00;99.90
21672;DHT22;10997;52.242;8.168;2023-05-21T10:01:44;19.80;99.90
21672;DHT22;10997;52.242;8.168;2023-05-21T10:06:46;19.60;99.90
21672;DHT22;10997;52.242;8.168;2023-05-21T10:11:49;19.60;99.90
21672;DHT22;10997;52.242;8.168;2023-05-21T10:16:53;19.60;99.90
21672;DHT22;10997;52.242;8.168;2023-05-21T10:21:54;19.90;99.90
21672;DHT22;10997;52.242;8.168;2023-05-21T10:26:56;20.40;99.90
21672;DHT22;10997;52.242;8.168;2023-05-21T10:32:00;20.50;99.90
21672;DHT22;10997;52.242;8.168;2023-05-21T10:37:01;20.80;99.90
21672;DHT22;10997;52.242;8.168;2023-05-21T10:53:21;22.00;99.90
21672;DHT22;10997;52.242;8.168;2023-05-21T10:58:22;22.30;99.90
21672;DHT22;10997;52.242;8.168;2023-05-21T11:03:25;22.70;99.90
21672;DHT22;10997;52.242;8.168;2023-05-21T11:08:31;22.90;99.90
21672;DHT22;10997;52.242;8.168;2023-05-21T11:13:47;22.70;99.90
21672;DHT22;10997;52.242;8.168;2023-05-21T11:34:19;23.60;99.90
21672;DHT22;10997;52.242;8.168;2023-05-21T11:39:24;24.10;99.90
21672;DHT22;10997;52.242;8.168;2023-05-21T11:44:38;24.60;99.90
21672;DHT22;10997;52.242;8.168;2023-05-21T11:49:40;25.20;99.90
21672;DHT22;10997;52.242;8.168;2023-05-21T11:54:42;25.60;99.90
21672;DHT22;10997;52.242;8.168;2023-05-21T11:59:46;25.90;99.90
21672;DHT22;10997;52.242;8.168;2023-05-21T12:04:48;26.10;99.90
21672;DHT22;10997;52.242;8.168;2023-05-21T12:09:50;25.80;99.90
21672;DHT22;10997;52.242;8.168;2023-05-21T12:14:52;25.40;99.90
21672;DHT22;10997;52.242;8.168;2023-05-21T12:19:54;25.60;99.90
21672;DHT22;10997;52.242;8.168;2023-05-21T12:24:58;25.20;99.90
21672;DHT22;10997;52.242;8.168;2023-05-21T12:30:00;25.70;99.90
21672;DHT22;10997;52.242;8.168;2023-05-21T12:35:01;26.10;99.90
21672;DHT22;10997;52.242;8.168;2023-05-21T12:40:03;26.20;99.90
21672;DHT22;10997;52.242;8.168;2023-05-21T12:45:11;26.20;99.90
21672;DHT22;10997;52.242;8.168;2023-05-21T12:50:12;26.90;99.90
21672;DHT22;10997;52.242;8.168;2023-05-21T12:55:13;27.10;99.90
21672;DHT22;10997;52.242;8.168;2023-05-21T13:00:14;27.20;99.90
21672;DHT22;10997;52.242;8.168;2023-05-21T13:05:22;27.10;99.90
21672;DHT22;10997;52.242;8.168;2023-05-21T13:10:23;27.10;99.90
21672;DHT22;10997;52.242;8.168;2023-05-21T13:15:23;27.00;99.90
21672;DHT22;10997;52.242;8.168;2023-05-21T13:20:24;26.90;99.90
21672;DHT22;10997;52.242;8.168;2023-05-21T13:25:26;27.20;99.90
21672;DHT22;10997;52.242;8.168;2023-05-21T13:30:28;27.10;99.90
21672;DHT22;10997;52.242;8.168;2023-05-21T13:35:28;27.40;99.90
21672;DHT22;10997;52.242;8.168;2023-05-21T13:40:33;27.00;99.90
21672;DHT22;10997;52.242;8.168;2023-05-21T13:45:34;26.50;99.90
21672;DHT22;10997;52.242;8.168;2023-05-21T13:50:35;26.30;99.90
21672;DHT22;10997;52.242;8.168;2023-05-21T13:55:36;25.90;99.90
21672;DHT22;10997;52.242;8.168;2023-05-21T14:00:36;25.80;99.90
21672;DHT22;10997;52.242;8.168;2023-05-21T14:05:37;25.80;99.90
21672;DHT22;10997;52.242;8.168;2023-05-21T14:10:38;25.80;99.90
21672;DHT22;10997;52.242;8.168;2023-05-21T14:15:38;25.70;99.90
21672;DHT22;10997;52.242;8.168;2023-05-21T14:20:39;25.70;99.90
21672;DHT22;10997;52.242;8.168;2023-05-21T14:25:40;25.90;99.90
21672;DHT22;10997;52.242;8.168;2023-05-21T14:30:41;26.00;99.90
21672;DHT22;10997;52.242;8.168;2023-05-21T14:35:42;26.10;99.90
21672;DHT22;10997;52.242;8.168;2023-05-21T14:40:43;26.40;99.90
21672;DHT22;10997;52.242;8.168;2023-05-21T14:45:44;26.60;99.90
21672;DHT22;10997;52.242;8.168;2023-05-21T14:50:44;26.60;99.90
21672;DHT22;10997;52.242;8.168;2023-05-21T14:55:45;26.80;99.90
21672;DHT22;10997;52.242;8.168;2023-05-21T15:00:46;26.80;99.90
21672;DHT22;10997;52.242;8.168;2023-05-21T15:05:46;26.60;99.90
21672;DHT22;10997;52.242;8.168;2023-05-21T15:10:47;26.70;99.90
21672;DHT22;10997;52.242;8.168;2023-05-21T15:15:48;27.10;99.90
21672;DHT22;10997;52.242;8.168;2023-05-21T15:20:49;27.20;99.90
21672;DHT22;10997;52.242;8.168;2023-05-21T15:25:50;26.90;99.90
21672;DHT22;10997;52.242;8.168;2023-05-21T15:30:50;27.00;99.90
21672;DHT22;10997;52.242;8.168;2023-05-21T15:35:51;26.80;99.90
21672;DHT22;10997;52.242;8.168;2023-05-21T15:40:51;26.60;99.90
21672;DHT22;10997;52.242;8.168;2023-05-21T15:45:52;26.70;99.90
21672;DHT22;10997;52.242;8.168;2023-05-21T15:50:53;26.50;99.90
21672;DHT22;10997;52.242;8.168;2023-05-21T15:55:54;26.50;99.90
21672;DHT22;10997;52.242;8.168;2023-05-21T16:00:54;26.20;99.90
21672;DHT22;10997;52.242;8.168;2023-05-21T16:05:55;26.10;99.90
21672;DHT22;10997;52.242;8.168;2023-05-21T16:10:56;26.30;99.90
21672;DHT22;10997;52.242;8.168;2023-05-21T16:15:56;26.40;99.90
21672;DHT22;10997;52.242;8.168;2023-05-21T16:20:57;26.60;99.90
21672;DHT22;10997;52.242;8.168;2023-05-21T16:25:58;26.60;99.90
21672;DHT22;10997;52.242;8.168;2023-05-21T16:30:58;26.70;99.90
21672;DHT22;10997;52.242;8.168;2023-05-21T16:35:59;26.70;99.90
21672;DHT22;10997;52.242;8.168;2023-05-21T16:41:00;26.80;99.90
21672;DHT22;10997;52.242;8.168;2023-05-21T16:46:00;26.80;99.90
21672;DHT22;10997;52.242;8.168;2023-05-21T16:51:01;27.10;99.90
21672;DHT22;10997;52.242;8.168;2023-05-21T16:56:01;27.40;99.90
21672;DHT22;10997;52.242;8.168;2023-05-21T17:01:02;27.50;99.90
21672;DHT22;10997;52.242;8.168;2023-05-21T17:06:03;27.60;99.90
21672;DHT22;10997;52.242;8.168;2023-05-21T17:11:03;27.50;99.90
21672;DHT22;10997;52.242;8.168;2023-05-21T17:16:05;27.50;99.90
21672;DHT22;10997;52.242;8.168;2023-05-21T17:21:06;27.30;99.90
21672;DHT22;10997;52.242;8.168;2023-05-21T17:26:06;27.20;99.90
21672;DHT22;10997;52.242;8.168;2023-05-21T17:31:08;27.00;99.90
21672;DHT22;10997;52.242;8.168;2023-05-21T17:36:09;26.80;99.90
21672;DHT22;10997;52.242;8.168;2023-05-21T17:41:10;26.40;99.90
21672;DHT22;10997;52.242;8.168;2023-05-21T17:46:10;26.10;99.90
21672;DHT22;10997;52.242;8.168;2023-05-21T17:51:15;25.90;99.90
21672;DHT22;10997;52.242;8.168;2023-05-21T17:56:16;25.80;99.90
21672;DHT22;10997;52.242;8.168;2023-05-21T18:01:18;25.60;99.90
21672;DHT22;10997;52.242;8.168;2023-05-21T18:06:19;25.60;99.90
21672;DHT22;10997;52.242;8.168;2023-05-21T18:11:20;25.40;99.90
21672;DHT22;10997;52.242;8.168;2023-05-21T18:16:21;25.20;99.90
21672;DHT22;10997;52.242;8.168;2023-05-21T18:21:22;25.10;99.90
21672;DHT22;10997;52.242;8.168;2023-05-21T18:26:25;25.00;99.90
21672;DHT22;10997;52.242;8.168;2023-05-21T18:31:26;25.00;99.90
21672;DHT22;10997;52.242;8.168;2023-05-21T18:36:27;24.80;99.90
21672;DHT22;10997;52.242;8.168;2023-05-21T18:41:28;24.80;99.90
21672;DHT22;10997;52.242;8.168;2023-05-21T18:46:28;24.70;99.90
21672;DHT22;10997;52.242;8.168;2023-05-21T18:51:29;24.50;99.90
21672;DHT22;10997;52.242;8.168;2023-05-21T18:56:30;24.40;99.90
21672;DHT22;10997;52.242;8.168;2023-05-21T19:01:31;24.20;99.90
21672;DHT22;10997;52.242;8.168;2023-05-21T19:06:32;24.00;99.90
21672;DHT22;10997;52.242;8.168;2023-05-21T19:11:32;23.80;99.90
21672;DHT22;10997;52.242;8.168;2023-05-21T19:16:36;23.50;99.90
21672;DHT22;10997;52.242;8.168;2023-05-21T19:21:37;23.30;99.90
21672;DHT22;10997;52.242;8.168;2023-05-21T19:26:37;23.10;99.90
21672;DHT22;10997;52.242;8.168;2023-05-21T19:31:38;22.90;99.90
21672;DHT22;10997;52.242;8.168;2023-05-21T19:36:39;22.70;99.90
21672;DHT22;10997;52.242;8.168;2023-05-21T19:41:40;22.50;99.90
21672;DHT22;10997;52.242;8.168;2023-05-21T19:46:41;22.30;99.90
21672;DHT22;10997;52.242;8.168;2023-05-21T19:51:41;22.20;99.90
21672;DHT22;10997;52.242;8.168;2023-05-21T19:56:42;22.00;99.90
21672;DHT22;10997;52.242;8.168;2023-05-21T20:01:43;21.80;99.90
21672;DHT22;10997;52.242;8.168;2023-05-21T20:06:44;21.70;99.90
21672;DHT22;10997;52.242;8.168;2023-05-21T20:11:44;21.60;99.90
21672;DHT22;10997;52.242;8.168;2023-05-21T20:16:45;21.50;99.90
21672;DHT22;10997;52.242;8.168;2023-05-21T20:21:46;21.40;99.90
21672;DHT22;10997;52.242;8.168;2023-05-21T20:26:47;21.30;99.90
21672;DHT22;10997;52.242;8.168;2023-05-21T20:31:47;21.20;99.90
21672;DHT22;10997;52.242;8.168;2023-05-21T20:36:48;21.20;99.90
21672;DHT22;10997;52.242;8.168;2023-05-21T20:41:49;21.20;99.90
21672;DHT22;10997;52.242;8.168;2023-05-21T20:46:49;21.10;99.90
21672;DHT22;10997;52.242;8.168;2023-05-21T20:51:50;21.00;99.90
21672;DHT22;10997;52.242;8.168;2023-05-21T20:56:51;20.80;99.90
21672;DHT22;10997;52.242;8.168;2023-05-21T21:01:54;20.70;99.90
21672;DHT22;10997;52.242;8.168;2023-05-21T21:06:54;20.70;99.90
21672;DHT22;10997;52.242;8.168;2023-05-21T21:11:55;20.60;99.90
21672;DHT22;10997;52.242;8.168;2023-05-21T21:16:56;20.60;99.90
21672;DHT22;10997;52.242;8.168;2023-05-21T21:21:56;20.50;99.90
21672;DHT22;10997;52.242;8.168;2023-05-21T21:26:57;20.50;99.90
21672;DHT22;10997;52.242;8.168;2023-05-21T21:31:58;20.50;99.90
21672;DHT22;10997;52.242;8.168;2023-05-21T21:36:58;20.30;99.90
21672;DHT22;10997;52.242;8.168;2023-05-21T21:41:59;20.20;99.90
21672;DHT22;10997;52.242;8.168;2023-05-21T21:47:00;20.00;99.90
21672;DHT22;10997;52.242;8.168;2023-05-21T21:52:00;20.10;99.90
21672;DHT22;10997;52.242;8.168;2023-05-21T21:57:01;20.10;99.90
21672;DHT22;10997;52.242;8.168;2023-05-21T22:02:02;20.10;99.90
21672;DHT22;10997;52.242;8.168;2023-05-21T22:07:02;20.00;99.90
21672;DHT22;10997;52.242;8.168;2023-05-21T22:12:03;19.70;99.90
21672;DHT22;10997;52.242;8.168;2023-05-21T22:17:06;19.50;99.90
21672;DHT22;10997;52.242;8.168;2023-05-21T22:22:08;19.40;99.90
21672;DHT22;10997;52.242;8.168;2023-05-21T22:27:09;19.30;99.90
21672;DHT22;10997;52.242;8.168;2023-05-21T22:32:09;19.20;99.90
21672;DHT22;10997;52.242;8.168;2023-05-21T22:37:10;19.20;99.90
21672;DHT22;10997;52.242;8.168;2023-05-21T22:42:11;19.20;99.90
21672;DHT22;10997;52.242;8.168;2023-05-21T22:47:12;19.20;99.90
21672;DHT22;10997;52.242;8.168;2023-05-21T22:52:13;19.20;99.90
21672;DHT22;10997;52.242;8.168;2023-05-21T22:57:15;19.20;99.90
21672;DHT22;10997;52.242;8.168;2023-05-21T23:02:16;19.20;99.90
21672;DHT22;10997;52.242;8.168;2023-05-21T23:07:17;19.10;99.90
21672;DHT22;10997;52.242;8.168;2023-05-21T23:12:17;19.00;99.90
21672;DHT22;10997;52.242;8.168;2023-05-21T23:17:18;19.00;99.90
21672;DHT22;10997;52.242;8.168;2023-05-21T23:22:18;18.90;99.90
21672;DHT22;10997;52.242;8.168;2023-05-21T23:27:19;18.90;99.90
21672;DHT22;10997;52.242;8.168;2023-05-21T23:32:19;18.80;99.90
21672;DHT22;10997;52.242;8.168;2023-05-21T23:37:20;18.80;99.90
21672;DHT22;10997;52.242;8.168;2023-05-21T23:42:21;18.80;99.90
21672;DHT22;10997;52.242;8.168;2023-05-21T23:47:21;18.80;99.90
21672;DHT22;10997;52.242;8.168;2023-05-21T23:52:22;18.70;99.90
21672;DHT22;10997;52.242;8.168;2023-05-21T23:57:23;18.60;99.90
